Rogers Spring, Nevada Weather observations

Data are for 10 minute period ending at time listed.
 Day   Time   Solar   Ave.   Ave.  Ave.  Vector  Max.   Baro.   Total    
  of    of     Rad.   Air    Rel.  Wind   Wind   Wind  Press.  Precip.   
Year   Day            Temp.  Hum.  Speed  Dir.   Gust                    
2015   (PST)  Kw/m2    F      %     mph   deg.    mph    mb.     in.     
-------------------------------------------------------------------------
 141   13:50   0.53   79.9    16   10.2   190    20.1   926.3    0.00 
 141   14:00   0.46   79.6    16   10.0   183    17.0   926.4    0.00 
 141   14:10   0.51   79.2    17    9.6   174    18.3   926.5    0.00 
 141   14:20   0.67   80.0    16    9.8   179    20.5   926.4    0.00 
 141   14:30   0.84   82.0    15    9.0   177    15.9   926.3    0.00 
 141   14:40   0.66   81.5    15    9.0   179    16.3   926.1    0.00 
 141   14:50   0.80   82.1    15    7.5   156    13.7   926.1    0.00 
 141   15:00   0.51   80.3    15    8.1   170    17.7   926.0    0.00 
 141   15:10   0.73   82.0    14    7.5   158    16.5   925.9    0.00 
 141   15:20   0.35   79.2    16    7.6   147    15.6   925.9    0.00 
 141   15:30   0.55   80.4    16    7.2   140    12.9   925.8    0.00 
 141   15:40   0.22   78.2    18    6.1   140    14.5   925.8    0.00 
 141   15:50   0.25   77.0    19    5.9   128    13.2   925.9    0.00 
 141   16:00   0.20   77.1    20    6.0   143    12.9   925.9    0.00 
 141   16:10   0.21   76.7    20    5.6   125    12.3   925.9    0.00 
 141   16:20   0.11   75.7    20    5.5   135    12.6   925.9    0.00 
 141   16:30   0.12   75.3    21    5.4   123    11.2   925.9    0.00 
 141   16:40   0.16   75.9    20    5.7   127    11.8   926.0    0.00 
 141   16:50   0.23   76.3    20    5.9   125    12.9   926.0    0.00 
 141   17:00   0.24   76.8    20    6.7   127    13.1   926.0    0.00 
 141   17:10   0.24   76.8    20    6.7   129    13.9   926.0    0.00 
 141   17:20   0.12   75.8    21    6.7   142    13.5   926.0    0.00 
 141   17:30   0.09   74.8    21    4.6   121    10.4   926.0    0.00 
 141   17:40   0.13   75.1    21    4.6   116    10.3   925.9    0.00 
 141   17:50   0.15   75.6    20    5.1    99     9.9   925.9    0.00 
 141   18:00   0.11   75.3    20    3.8   121     7.9   926.0    0.00 
 141   18:10   0.04   74.3    20    3.5   126    10.9   926.0    0.00 
 141   18:20   0.02   72.8    22    2.5   122     5.2   926.1    0.00 
 141   18:30   0.02   72.2    21    3.5   136     7.4   926.1    0.00 
 141   18:40   0.02   72.0    22    3.6   136     6.9   926.1    0.00 
 141   18:50   0.01   71.6    22    3.9   142     8.2   926.2    0.00 
 141   19:00   0.00   71.5    23    4.3   144     9.3   926.2    0.00 
 141   19:10   0.00   71.3    23    5.3   147    10.7   926.3    0.00 
 141   19:20   0.00   70.4    24    4.4   143    10.7   926.3    0.00 
 141   19:30   0.00   70.2    25    5.3   146    10.4   926.5    0.00 
 141   19:40   0.00   69.7    25    6.3   156    10.7   926.5    0.00 
 141   19:50   0.00   69.0    25    5.2   163    10.0   926.6    0.00 
 141   20:00   0.00   67.9    26    4.5   164     8.9   926.6    0.00 
 141   20:10   0.00   66.8    28    4.3   158     7.2   926.7    0.00 
 141   20:20   0.00   66.5    28    3.7   155     6.8   926.8    0.00 
 141   20:30   0.00   65.9    29    2.6   140     5.6   927.0    0.00 
 141   20:40   0.00   65.5    29    2.2   141     4.2   927.0    0.00 
 141   20:50   0.00   65.4    30    2.5   136     4.5   927.1    0.00 
 141   21:00   0.00   65.2    30    2.2   116     4.2   927.2    0.00 
 141   21:10   0.00   65.1    30    2.4   130     4.7   927.3    0.00 
 141   21:20   0.00   65.2    30    4.4   155     9.3   927.4    0.00 
 141   21:30   0.00   65.3    30    4.5   165    10.7   927.4    0.00 
 141   21:40   0.00   65.2    30    5.3   159     9.7   927.5    0.00 
 141   21:50   0.00   65.4    30    6.2   164    11.8   927.4    0.00 
 141   22:00   0.00   65.4    30    5.9   167    10.7   927.4    0.00 
 141   22:10   0.00   64.8    30    5.8   172    10.2   927.4    0.00 
 141   22:20   0.00   64.5    30    6.4   177    11.6   927.4    0.00 
 141   22:30   0.00   64.6    30    6.4   172    11.1   927.5    0.00 
 141   22:40   0.00   64.6    30    6.1   168    11.2   927.6    0.00 
 141   22:50   0.00   64.4    30    6.6   153    11.5   927.8    0.00 
 141   23:00   0.00   64.2    31    6.5   158    13.4   927.9    0.00 
 141   23:10   0.00   63.6    32    4.8   160     8.8   928.0    0.00 
 141   23:20   0.00   63.3    33    4.6   172     8.2   928.0    0.00 
 141   23:30   0.00   63.2    33    4.6   184     9.2   928.0    0.00 
 141   23:40   0.00   63.3    34    4.6   180     9.5   928.0    0.00 
 141   23:50   0.00   63.4    34    5.1   177    10.1   928.0    0.00 
 142    0:00   0.00   63.5    34    5.0   181     8.8   928.1    0.00 
 142    0:10   0.00   63.1    35    5.1   185     8.9   928.1    0.00 
 142    0:20   0.00   63.0    36    5.0   181     9.8   928.1    0.00 
 142    0:30   0.00   62.6    36    4.5   169     7.0   928.2    0.00 
 142    0:40   0.00   62.3    38    3.9   162     8.3   928.2    0.00 
 142    0:50   0.00   61.6    39    2.5   151     5.9   928.1    0.00 
 142    1:00   0.00   61.1    40    1.7   163     5.7   928.1    0.00 
 142    1:10   0.00   60.3    44    2.9   182     7.2   928.1    0.00 
 142    1:20   0.00   59.9    46    4.4   171     9.2   928.1    0.00 
 142    1:30   0.00   59.5    48    4.4   163     8.4   928.1    0.00 
 142    1:40   0.00   59.3    48    4.5   163     9.2   928.1    0.00 
 142    1:50   0.00   59.2    49    4.7   176    10.4   928.1    0.00 
 142    2:00   0.00   59.3    49    5.3   176     9.6   928.1    0.00 
 142    2:10   0.00   59.4    48    5.1   193     9.2   928.1    0.00 
 142    2:20   0.00   59.4    48    5.1   185    10.4   928.1    0.00 
 142    2:30   0.00   59.4    48    3.5   173     9.3   928.2    0.00 
 142    2:40   0.00   59.2    49    3.3   177     7.2   928.3    0.00 
 142    2:50   0.00   59.1    49    4.2   161     8.9   928.3    0.00 
 142    3:00   0.00   59.0    49    4.7   155     9.5   928.4    0.00 
 142    3:10   0.00   59.1    49    4.8   165     8.8   928.3    0.00 
 142    3:20   0.00   58.8    49    3.7   174     6.8   928.4    0.00 
 142    3:30   0.00   58.5    50    3.4   174     6.3   928.4    0.00 
 142    3:40   0.00   58.3    50    3.7   214     7.0   928.4    0.00 
 142    3:50   0.00   58.6    50    5.2   200     9.4   928.6    0.00 
 142    4:00   0.00   58.6    51    6.2   195    10.1   928.7    0.00 
 142    4:10   0.00   58.4    52    6.5   196    11.7   928.8    0.00 
 142    4:20   0.00   57.9    56    5.5   186    11.0   928.9    0.00 
 142    4:30   0.00   57.0    59    5.0   190    11.1   929.0    0.00 
 142    4:40   0.00   56.4    61    6.3   198    10.2   929.0    0.00 
 142    4:50   0.01   56.5    59    5.3   185     9.8   929.1    0.00 
 142    5:00   0.02   56.6    58    4.8   193     9.6   929.2    0.00 
 142    5:10   0.04   57.1    57    5.0   192     9.1   929.3    0.00 
 142    5:20   0.02   57.2    58    5.9   197    10.1   929.5    0.00 
 142    5:30   0.02   56.7    61    5.2   199     8.8   929.7    0.00 
 142    5:40   0.03   56.9    60    5.5   197    10.3   929.8    0.00 
 142    5:50   0.03   57.1    59    5.0   191     8.9   929.8    0.00 
 142    6:00   0.04   56.5    65    4.4   184     7.3   930.1    0.00 
 142    6:10   0.10   55.2    74    4.5   192     7.5   929.9    0.00 
 142    6:20   0.20   55.8    77    3.8   193     7.5   929.9    0.01 
 142    6:30   0.19   56.9    72    4.6   202     8.3   929.9    0.00 
 142    6:40   0.32   58.5    68    4.0   212     9.0   930.0    0.00 
 142    6:50   0.36   60.2    60    4.4   226     9.8   930.1    0.00 
 142    7:00   0.39   61.4    57    3.8   220     7.7   930.4    0.00 
 142    7:10   0.42   62.3    54    3.2   204     7.0   930.4    0.00 
 142    7:20   0.46   63.3    52    2.8   227     5.8   930.6    0.00 
 142    7:30   0.49   63.5    51    2.4   264     5.2   930.7    0.00 
 142    7:40   0.50   64.0    51    2.7   264     5.5   930.8    0.00 
 142    7:50   0.51   63.8    52    4.1   269     8.0   930.8    0.00 
 142    8:00   0.60   64.3    52    4.2   276     8.3   930.9    0.00 
 142    8:10   0.63   65.2    49    3.2   214     6.3   930.9    0.00 
 142    8:20   0.63   66.5    47    3.7   235     9.8   930.9    0.00 
 142    8:30   0.57   66.4    47    2.9   242     7.2   930.9    0.00 
 142    8:40   0.56   66.6    45    3.7   298    12.3   930.8    0.00 
 142    8:50   0.43   66.3    43    5.5   327    11.1   930.8    0.00 
 142    9:00   0.45   66.5    43    4.9   303    10.3   930.7    0.00 
 142    9:10   0.42   66.5    41    4.4   311     9.5   930.6    0.00 
 142    9:20   0.41   66.8    40    4.6   315     9.8   930.5    0.00 
 142    9:30   0.33   67.1    40    4.9   301    11.3   930.4    0.00 
 142    9:40   0.34   67.6    38    6.0   286    10.9   930.3    0.00 
 142    9:50   0.41   67.9    38    6.2   274    13.4   930.2    0.00 
 142   10:00   0.79   69.8    37    6.8   245    11.7   930.2    0.00 
 142   10:10   1.02   72.4    34    6.9   221    13.9   930.1    0.00 
 142   10:20   0.90   72.4    32    7.5   205    13.9   930.2    0.00 
 142   10:30   1.03   72.1    33    5.5   206    11.5   930.2    0.00 
 142   10:40   1.07   72.7    32    7.1   189    13.1   930.1    0.00 
 142   10:50   0.91   73.1    32    7.7   186    13.7   930.0    0.00 
 142   11:00   0.67   71.8    33    7.2   175    12.6   930.0    0.00 
 142   11:10   0.65   70.5    34    6.6   174    13.1   929.9    0.00 
 142   11:20   0.88   71.8    33    7.1   164    11.8   929.9    0.00 
 142   11:30   1.09   73.3    31    6.3   165    12.3   930.0    0.00 
 142   11:40   0.99   73.3    30    5.8   157    11.0   929.8    0.00 
 142   11:50   0.70   72.7    31    6.1   171    14.3   929.6    0.00 
 142   12:00   0.28   71.1    32    7.5   187    12.9   929.6    0.00 
 142   12:10   0.21   68.6    36    8.2   163    15.0   929.7    0.00 
 142   12:20   0.20   67.5    37    8.4   153    17.8   929.7    0.00 
 142   12:30   0.16   66.5    39    8.1   153    14.0   929.9    0.00 
 142   12:40   0.08   65.9    40    7.0   151    13.2   930.1    0.00 
 142   12:50   0.04   65.5    42    4.1   136     8.6   930.3    0.00 
 142   13:00   0.03   63.7    46    6.8    32    14.4   930.7    0.00 
 142   13:10   0.03   61.4    54   12.9     9    22.9   930.8    0.00 
 142   13:20   0.03   59.6    60   11.2    18    17.0   930.9    0.00 
 142   13:30   0.04   58.8    67    9.7    26    15.1   930.9    0.00 
 142   13:40   0.08   58.5    70    7.7    29    12.8   930.8    0.00 

Return to Rogers Spring graphs page.


Western Regional Climate Center,wrcc@dri.edu